TimeHST,TemperatureF,Dew PointF,Humidity,Sea Level PressureIn,VisibilityMPH,Wind Direction,Wind SpeedMPH,Gust SpeedMPH,PrecipitationIn,Events,Conditions,WindDirDegrees,DateUTC
12:53 AM,72.0,63.3,74,30.11,10.0,ENE,18.4,27.6,N/A,,Partly Cloudy,70,2013-01-06 10:53:00
1:53 AM,71.6,63.3,75,30.10,10.0,ENE,18.4,26.5,N/A,,Partly Cloudy,70,2013-01-06 11:53:00
2:53 AM,71.8,63.3,75,30.09,10.0,ENE,12.7,26.5,N/A,,Partly Cloudy,60,2013-01-06 12:53:00
3:53 AM,72.1,62.6,72,30.09,10.0,NE,19.6,24.2,N/A,,Partly Cloudy,50,2013-01-06 13:53:00
4:53 AM,72.5,63.1,72,30.10,10.0,ENE,18.4,25.3,N/A,,Partly Cloudy,60,2013-01-06 14:53:00
5:53 AM,73.0,63.7,72,30.11,10.0,ENE,15.0,23.0,N/A,,Scattered Clouds,60,2013-01-06 15:53:00
6:53 AM,73.2,63.5,71,30.11,10.0,ENE,16.1,25.3,0.00,Rain,Light Rain,70,2013-01-06 16:53:00
7:53 AM,71.6,64.2,77,30.12,10.0,ENE,13.8,27.6,0.00,,Partly Cloudy,70,2013-01-06 17:53:00
8:53 AM,75.9,66.2,72,30.12,10.0,ENE,18.4,33.4,N/A,,Partly Cloudy,60,2013-01-06 18:53:00
9:53 AM,79.5,65.3,62,30.13,10.0,ENE,17.3,27.6,N/A,,Scattered Clouds,60,2013-01-06 19:53:00
10:53 AM,81.0,64.9,58,30.12,10.0,ENE,19.6,29.9,N/A,,Scattered Clouds,60,2013-01-06 20:53:00
11:53 AM,81.7,64.9,57,30.09,10.0,ENE,28.8,36.8,N/A,,Scattered Clouds,70,2013-01-06 21:53:00
12:53 PM,82.0,62.1,51,30.05,10.0,ENE,26.5,33.4,N/A,,Scattered Clouds,70,2013-01-06 22:53:00
1:53 PM,82.0,62.1,51,30.02,10.0,East,23.0,29.9,N/A,,Scattered Clouds,80,2013-01-06 23:53:00
2:53 PM,81.0,63.0,54,30.01,10.0,ENE,24.2,29.9,N/A,,Scattered Clouds,70,2013-01-07 00:53:00
3:53 PM,80.1,64.0,58,30.01,10.0,East,23.0,-,N/A,,Scattered Clouds,80,2013-01-07 01:53:00
4:53 PM,78.1,64.0,62,30.03,10.0,ENE,13.8,-,N/A,,Mostly Cloudy,60,2013-01-07 02:53:00
5:53 PM,75.9,64.9,69,30.06,10.0,ENE,13.8,-,N/A,,Mostly Cloudy,60,2013-01-07 03:53:00
6:53 PM,73.9,66.0,76,30.07,9.0,ENE,15.0,-,0.00,Rain,Light Rain,60,2013-01-07 04:53:00
7:53 PM,75.0,64.9,71,30.08,10.0,ENE,16.1,20.7,0.00,,Mostly Cloudy,60,2013-01-07 05:53:00
8:53 PM,73.9,64.9,73,30.08,10.0,ENE,15.0,21.9,N/A,,Scattered Clouds,70,2013-01-07 06:53:00
9:53 PM,73.9,64.9,73,30.08,10.0,ENE,17.3,26.5,N/A,,Scattered Clouds,70,2013-01-07 07:53:00
10:53 PM,73.9,64.0,71,30.06,10.0,East,10.4,23.0,N/A,,Scattered Clouds,80,2013-01-07 08:53:00
11:53 PM,73.0,64.9,76,30.04,10.0,ENE,17.3,24.2,N/A,,Mostly Cloudy,60,2013-01-07 09:53:00